createdAt,value
2023-04-26T00:00:20.106Z,54.13
2023-04-26T00:03:18.994Z,54.25
2023-04-26T00:06:14.110Z,54.42
2023-04-26T00:09:06.822Z,54.52
2023-04-26T00:11:41.552Z,54.48
2023-04-26T00:14:16.266Z,54.56
2023-04-26T00:17:08.229Z,54.77
2023-04-26T00:20:00.546Z,54.69
2023-04-26T00:22:53.220Z,54.44
2023-04-26T00:25:35.316Z,54.59
2023-04-26T00:28:12.155Z,54.27
2023-04-26T00:31:04.180Z,54.21
2023-04-26T00:33:56.143Z,54.03
2023-04-26T00:36:48.184Z,54.05
2023-04-26T00:39:40.248Z,54.08
2023-04-26T00:42:20.888Z,53.81
2023-04-26T00:45:13.371Z,53.83
2023-04-26T00:48:06.122Z,53.67
2023-04-26T00:50:58.253Z,53.74
2023-04-26T00:53:50.532Z,53.81
2023-04-26T00:56:43.138Z,53.94
2023-04-26T00:59:35.444Z,54.04
2023-04-26T01:02:27.780Z,53.82
2023-04-26T01:05:20.694Z,53.76
2023-04-26T01:07:56.173Z,53.68
2023-04-26T01:10:48.427Z,53.61
2023-04-26T01:13:42.889Z,53.60
2023-04-26T01:16:36.214Z,53.45
2023-04-26T01:19:28.266Z,53.58
2023-04-26T01:22:21.158Z,53.65
2023-04-26T01:25:14.366Z,53.52
2023-04-26T01:28:06.447Z,53.44
2023-04-26T01:30:58.313Z,53.37
2023-04-26T01:33:50.373Z,53.32
2023-04-26T01:36:42.485Z,53.42
2023-04-26T01:39:19.818Z,53.42
2023-04-26T01:42:11.794Z,53.46
2023-04-26T01:45:00.049Z,53.54
2023-04-26T01:47:52.076Z,53.51
2023-04-26T01:50:44.079Z,53.56
2023-04-26T01:53:36.125Z,53.47
2023-04-26T01:56:28.157Z,53.40
2023-04-26T01:59:10.083Z,53.51
2023-04-26T02:02:02.191Z,53.76
2023-04-26T02:04:54.845Z,53.68
2023-04-26T02:07:46.822Z,53.80
2023-04-26T02:10:39.527Z,53.90
2023-04-26T02:13:13.940Z,53.99
2023-04-26T02:16:07.539Z,53.99
2023-04-26T02:19:00.046Z,53.94
2023-04-26T02:21:55.689Z,54.06
2023-04-26T02:24:47.781Z,54.17
2023-04-26T02:27:39.787Z,54.13
2023-04-26T02:30:32.060Z,54.32
2023-04-26T02:33:24.009Z,54.37
2023-04-26T02:36:15.954Z,54.42
2023-04-26T02:39:07.942Z,54.67
2023-04-26T02:42:00.169Z,54.78
2023-04-26T02:44:52.191Z,54.99
2023-04-26T02:47:44.318Z,55.01
2023-04-26T02:50:36.315Z,55.02
2023-04-26T02:53:28.342Z,55.22
2023-04-26T02:56:20.622Z,55.26
2023-04-26T02:58:55.447Z,55.41
2023-04-26T03:01:47.484Z,55.53
2023-04-26T03:04:39.971Z,55.61
2023-04-26T03:07:33.014Z,55.73
2023-04-26T03:10:24.968Z,55.76
2023-04-26T03:13:16.931Z,55.68
2023-04-26T03:15:52.464Z,55.69
2023-04-26T03:18:44.403Z,55.79
2023-04-26T03:21:36.415Z,55.92
2023-04-26T03:24:28.393Z,56.10
2023-04-26T03:27:20.372Z,56.01
2023-04-26T03:30:13.477Z,56.24
2023-04-26T03:32:55.859Z,56.22
2023-04-26T03:35:47.869Z,56.31
2023-04-26T03:38:39.884Z,56.30
2023-04-26T03:41:33.245Z,56.55
2023-04-26T03:44:25.262Z,56.49
2023-04-26T03:47:17.226Z,56.60
2023-04-26T03:49:58.182Z,56.78
2023-04-26T03:52:50.165Z,56.94
2023-04-26T03:55:42.926Z,56.95
2023-04-26T03:58:34.977Z,56.98
2023-04-26T04:01:27.021Z,57.11
2023-04-26T04:04:19.485Z,57.17
2023-04-26T04:07:11.668Z,57.35
2023-04-26T04:10:03.840Z,57.35
2023-04-26T04:12:55.843Z,57.36
2023-04-26T04:15:48.242Z,57.61
2023-04-26T04:18:40.331Z,57.59
2023-04-26T04:21:32.677Z,57.62
2023-04-26T04:24:25.613Z,57.57
2023-04-26T04:27:17.575Z,57.52
2023-04-26T04:30:12.123Z,57.47
2023-04-26T04:33:05.345Z,57.33
2023-04-26T04:35:58.582Z,57.37
2023-04-26T04:38:50.925Z,57.39
2023-04-26T04:41:47.870Z,57.29
2023-04-26T04:44:24.053Z,57.18
2023-04-26T04:47:16.187Z,56.96
2023-04-26T04:50:10.083Z,57.06
2023-04-26T04:53:02.279Z,56.97
2023-04-26T04:55:54.292Z,56.73
2023-04-26T04:58:46.303Z,56.76
2023-04-26T05:01:38.707Z,56.51
2023-04-26T05:04:34.567Z,56.24
2023-04-26T05:07:27.940Z,56.00
2023-04-26T05:10:21.372Z,55.54
2023-04-26T05:13:13.389Z,55.05
2023-04-26T05:16:05.611Z,54.98
2023-04-26T05:18:57.615Z,54.90
2023-04-26T05:21:49.606Z,54.52
2023-04-26T05:24:41.812Z,52.47
2023-04-26T05:27:34.053Z,50.27
2023-04-26T05:30:26.472Z,48.07
2023-04-26T05:33:18.540Z,45.87
2023-04-26T05:36:11.597Z,43.76
2023-04-26T05:38:46.292Z,42.18
2023-04-26T05:41:38.309Z,40.83
2023-04-26T05:44:30.441Z,39.09
2023-04-26T05:47:22.377Z,37.72
2023-04-26T05:50:04.821Z,36.28
2023-04-26T05:52:56.748Z,34.85
2023-04-26T05:55:49.278Z,33.75
2023-04-26T05:58:41.688Z,32.80
2023-04-26T06:01:16.258Z,31.75
2023-04-26T06:04:08.738Z,30.82
2023-04-26T06:07:01.538Z,29.76
2023-04-26T06:09:53.561Z,28.35
2023-04-26T06:12:45.900Z,27.79
2023-04-26T06:15:37.869Z,26.83
2023-04-26T06:18:29.916Z,26.28
2023-04-26T06:21:04.489Z,25.88
2023-04-26T06:23:44.971Z,25.02
2023-04-26T06:26:36.933Z,23.87
2023-04-26T06:29:13.925Z,23.59
2023-04-26T06:32:06.248Z,22.75
2023-04-26T06:34:58.253Z,22.66
2023-04-26T06:37:50.616Z,22.10
2023-04-26T06:40:42.670Z,21.75
2023-04-26T06:43:34.659Z,21.76
2023-04-26T06:46:26.829Z,21.22
2023-04-26T06:49:18.918Z,21.16
2023-04-26T06:52:11.000Z,21.58
2023-04-26T06:55:05.420Z,23.51
2023-04-26T06:57:57.415Z,24.04
2023-04-26T07:00:50.362Z,23.39
2023-04-26T07:03:25.429Z,23.86
2023-04-26T07:06:17.627Z,24.63
2023-04-26T07:09:10.121Z,25.42
2023-04-26T07:12:02.363Z,26.31
2023-04-26T07:14:54.373Z,26.79
2023-04-26T07:17:46.626Z,27.74
2023-04-26T07:20:38.645Z,28.00
2023-04-26T07:23:32.002Z,28.54
2023-04-26T07:26:24.013Z,29.07
2023-04-26T07:29:16.321Z,29.23
2023-04-26T07:32:08.785Z,29.48
2023-04-26T07:34:51.229Z,29.91
2023-04-26T07:37:43.199Z,30.31
2023-04-26T07:40:18.792Z,30.60
2023-04-26T07:43:10.723Z,30.80
2023-04-26T07:46:03.950Z,31.21
2023-04-26T07:48:56.055Z,31.76
2023-04-26T07:51:48.128Z,32.20
2023-04-26T07:54:40.421Z,32.54
2023-04-26T07:57:32.502Z,32.57
2023-04-26T08:00:24.595Z,32.90
2023-04-26T08:03:19.023Z,33.15
2023-04-26T08:06:13.893Z,33.07
2023-04-26T08:09:06.094Z,33.27
2023-04-26T08:11:58.349Z,33.09
2023-04-26T08:14:50.573Z,33.36
2023-04-26T08:17:42.625Z,33.32
2023-04-26T08:20:34.640Z,33.09
2023-04-26T08:23:26.717Z,33.24
2023-04-26T08:26:18.723Z,33.90
2023-04-26T08:29:10.735Z,33.15
2023-04-26T08:32:02.760Z,30.89
2023-04-26T08:34:40.033Z,30.33
2023-04-26T08:37:32.476Z,30.52
2023-04-26T08:40:26.351Z,29.66
2023-04-26T08:43:18.715Z,28.63
2023-04-26T08:46:16.699Z,27.12
2023-04-26T08:49:28.394Z,25.63
2023-04-26T08:52:23.242Z,25.96
2023-04-26T08:55:17.429Z,27.33
2023-04-26T08:58:09.522Z,27.47
2023-04-26T09:01:03.428Z,26.42
2023-04-26T09:03:58.253Z,26.43
2023-04-26T09:06:50.842Z,26.93
2023-04-26T09:09:46.289Z,27.82
2023-04-26T09:12:28.306Z,29.31
2023-04-26T09:15:10.701Z,29.54
2023-04-26T09:18:23.610Z,28.72
2023-04-26T09:21:17.844Z,28.67
2023-04-26T09:24:10.571Z,29.16
2023-04-26T09:27:05.621Z,29.38
2023-04-26T09:30:07.897Z,30.04
2023-04-26T09:33:03.514Z,30.67
2023-04-26T09:35:55.481Z,29.08
2023-04-26T09:38:47.647Z,28.60
2023-04-26T09:41:46.335Z,27.92
2023-04-26T09:44:39.124Z,28.66
2023-04-26T09:47:31.128Z,28.87
2023-04-26T09:50:33.561Z,28.83
2023-04-26T09:53:37.052Z,28.77
2023-04-26T09:56:13.384Z,28.82
2023-04-26T09:59:07.955Z,28.46
2023-04-26T10:02:00.139Z,28.64
2023-04-26T10:04:41.618Z,28.82
2023-04-26T10:07:34.975Z,29.42
2023-04-26T10:10:27.244Z,30.23
2023-04-26T10:13:21.226Z,30.74
2023-04-26T10:16:13.237Z,31.24
2023-04-26T10:19:05.282Z,31.20
2023-04-26T10:22:01.557Z,31.24
2023-04-26T10:24:55.775Z,31.22
2023-04-26T10:27:54.089Z,30.74
2023-04-26T10:30:59.301Z,30.24
2023-04-26T10:34:22.012Z,29.95
2023-04-26T10:37:16.264Z,29.87
2023-04-26T10:40:35.321Z,29.62
2023-04-26T10:43:33.328Z,30.08
2023-04-26T10:46:39.730Z,30.35
2023-04-26T10:49:45.150Z,29.98
2023-04-26T10:52:38.110Z,29.71
2023-04-26T10:55:42.878Z,29.35
2023-04-26T10:58:36.525Z,29.21
2023-04-26T11:01:21.030Z,28.85
2023-04-26T11:04:11.460Z,28.50
2023-04-26T11:07:05.635Z,28.45
2023-04-26T11:09:57.614Z,28.52
2023-04-26T11:13:06.873Z,28.67
2023-04-26T11:16:05.029Z,28.50
2023-04-26T11:18:57.459Z,28.40
2023-04-26T11:21:49.615Z,28.49
2023-04-26T11:24:41.740Z,28.85
2023-04-26T11:27:33.816Z,29.19
2023-04-26T11:30:25.896Z,29.63
2023-04-26T11:33:23.040Z,29.57
2023-04-26T11:36:15.357Z,28.94
2023-04-26T11:39:08.040Z,28.90
2023-04-26T11:42:07.513Z,29.28
2023-04-26T11:45:01.547Z,29.40
2023-04-26T11:47:54.480Z,29.05
2023-04-26T11:50:47.042Z,28.88
2023-04-26T11:53:40.447Z,28.82
2023-04-26T11:56:19.344Z,28.74
2023-04-26T11:58:58.266Z,29.05
2023-04-26T12:01:53.619Z,28.88
2023-04-26T12:04:46.811Z,28.31
2023-04-26T12:07:39.543Z,28.22
2023-04-26T12:10:22.732Z,28.04
2023-04-26T12:13:16.534Z,28.22
2023-04-26T12:16:25.729Z,28.34
2023-04-26T12:19:27.498Z,28.50
2023-04-26T12:22:02.142Z,28.67
2023-04-26T12:25:10.412Z,28.90
2023-04-26T12:28:02.851Z,28.88
2023-04-26T12:30:37.378Z,28.44
2023-04-26T12:33:17.221Z,28.32
2023-04-26T12:36:11.873Z,27.91
2023-04-26T12:38:52.859Z,27.94
2023-04-26T12:41:46.691Z,27.91
2023-04-26T12:44:38.674Z,28.06
2023-04-26T12:47:15.829Z,28.23
2023-04-26T12:50:09.467Z,28.66
2023-04-26T12:52:47.227Z,28.65
2023-04-26T12:55:39.735Z,28.42
2023-04-26T12:58:17.212Z,28.59
2023-04-26T13:01:09.118Z,28.46
2023-04-26T13:04:04.628Z,27.94
2023-04-26T13:06:53.212Z,27.75
2023-04-26T13:09:45.361Z,27.67
2023-04-26T13:12:37.823Z,28.06
2023-04-26T13:15:30.423Z,28.26
2023-04-26T13:18:08.133Z,28.70
2023-04-26T13:21:00.222Z,28.93
2023-04-26T13:23:52.447Z,29.48
2023-04-26T13:26:44.462Z,29.79
2023-04-26T13:29:36.988Z,29.88
2023-04-26T13:32:29.094Z,29.88
2023-04-26T13:35:21.546Z,29.95
2023-04-26T13:38:13.618Z,30.00
2023-04-26T13:41:06.291Z,29.74
2023-04-26T13:43:58.378Z,29.98
2023-04-26T13:46:50.623Z,29.99
2023-04-26T13:49:44.690Z,30.22
2023-04-26T13:52:36.761Z,30.53
2023-04-26T13:55:29.814Z,30.45
2023-04-26T13:58:21.780Z,30.64
2023-04-26T14:00:59.243Z,30.03
2023-04-26T14:03:53.539Z,30.33
2023-04-26T14:06:46.997Z,30.83
2023-04-26T14:09:38.983Z,31.53
2023-04-26T14:12:31.730Z,32.05
2023-04-26T14:15:24.020Z,32.36
2023-04-26T14:18:17.872Z,32.50
2023-04-26T14:21:10.078Z,32.44
2023-04-26T14:24:02.053Z,32.77
2023-04-26T14:26:54.067Z,32.77
2023-04-26T14:29:28.628Z,32.66
2023-04-26T14:32:20.776Z,32.67
2023-04-26T14:35:12.864Z,32.80
2023-04-26T14:38:04.924Z,32.63
2023-04-26T14:40:56.874Z,32.74
2023-04-26T14:43:50.363Z,32.91
2023-04-26T14:46:42.420Z,33.31
2023-04-26T14:49:34.401Z,33.75
2023-04-26T14:52:28.872Z,34.22
2023-04-26T14:55:22.522Z,34.70
2023-04-26T14:58:04.414Z,34.80
2023-04-26T15:00:56.713Z,34.78
2023-04-26T15:03:48.833Z,34.61
2023-04-26T15:06:41.209Z,34.42
2023-04-26T15:09:33.506Z,34.26
2023-04-26T15:12:25.626Z,34.15
2023-04-26T15:15:00.188Z,34.21
2023-04-26T15:17:52.663Z,33.84
2023-04-26T15:20:44.802Z,33.38
2023-04-26T15:23:36.754Z,33.48
2023-04-26T15:26:30.911Z,33.43
2023-04-26T15:29:22.958Z,33.41
2023-04-26T15:32:14.942Z,33.19
2023-04-26T15:35:07.990Z,33.05
2023-04-26T15:38:00.561Z,33.11
2023-04-26T15:40:53.673Z,33.02
2023-04-26T15:43:45.807Z,33.12
2023-04-26T15:46:38.289Z,33.02
2023-04-26T15:49:30.854Z,32.99
2023-04-26T15:52:22.827Z,33.17
2023-04-26T15:55:15.107Z,33.50
2023-04-26T15:58:07.118Z,33.64
2023-04-26T16:00:59.094Z,33.91
2023-04-26T16:03:52.874Z,34.22
2023-04-26T16:06:38.247Z,34.82
2023-04-26T16:09:30.524Z,35.34
2023-04-26T16:12:22.590Z,35.48
2023-04-26T16:15:14.772Z,35.63
2023-04-26T16:18:07.011Z,35.82
2023-04-26T16:20:41.112Z,35.94
2023-04-26T16:23:33.346Z,35.79
2023-04-26T16:26:25.272Z,35.92
2023-04-26T16:29:18.035Z,36.02
2023-04-26T16:31:55.291Z,35.85
2023-04-26T16:34:47.504Z,35.90
2023-04-26T16:37:40.987Z,35.69
2023-04-26T16:40:23.646Z,35.75
2023-04-26T16:43:15.579Z,35.85
2023-04-26T16:46:09.259Z,36.08
2023-04-26T16:49:01.480Z,36.09
2023-04-26T16:51:58.779Z,36.21
2023-04-26T16:54:50.980Z,36.42
2023-04-26T16:57:43.032Z,36.72
2023-04-26T17:00:35.140Z,36.95
2023-04-26T17:03:27.981Z,37.15
2023-04-26T17:06:20.150Z,37.04
2023-04-26T17:09:12.973Z,36.91
2023-04-26T17:12:05.225Z,36.81
2023-04-26T17:14:57.327Z,36.89
2023-04-26T17:17:49.527Z,37.25
2023-04-26T17:20:42.224Z,37.26
2023-04-26T17:23:28.521Z,37.53
2023-04-26T17:26:21.677Z,37.78
2023-04-26T17:29:14.015Z,38.07
2023-04-26T17:32:06.256Z,38.36
2023-04-26T17:34:58.886Z,38.64
2023-04-26T17:37:50.967Z,38.80
2023-04-26T17:40:42.958Z,39.06
2023-04-26T17:43:34.901Z,39.42
2023-04-26T17:46:26.965Z,39.84
2023-04-26T17:49:20.902Z,40.18
2023-04-26T17:52:12.858Z,40.44
2023-04-26T17:55:05.210Z,40.84
2023-04-26T17:57:47.297Z,40.91
2023-04-26T18:00:39.245Z,41.36
2023-04-26T18:03:20.639Z,41.49
2023-04-26T18:06:12.892Z,41.71
2023-04-26T18:09:05.024Z,41.86
2023-04-26T18:11:39.573Z,42.09
2023-04-26T18:14:31.567Z,42.18
2023-04-26T18:17:24.050Z,42.45
2023-04-26T18:20:16.480Z,42.57
2023-04-26T18:23:08.423Z,42.77
2023-04-26T18:26:00.394Z,43.00
2023-04-26T18:28:48.407Z,43.32
2023-04-26T18:31:40.510Z,43.10
2023-04-26T18:34:32.572Z,42.84
2023-04-26T18:37:25.375Z,42.91
2023-04-26T18:40:17.781Z,43.00
2023-04-26T18:43:09.768Z,43.05
2023-04-26T18:46:01.875Z,43.00
2023-04-26T18:48:54.119Z,42.95
2023-04-26T18:51:46.123Z,43.12
2023-04-26T18:54:38.960Z,43.05
2023-04-26T18:57:31.072Z,43.08
2023-04-26T19:00:23.712Z,42.92
2023-04-26T19:03:04.090Z,42.79
2023-04-26T19:05:56.288Z,42.89
2023-04-26T19:08:48.359Z,42.85
2023-04-26T19:11:31.373Z,43.13
2023-04-26T19:14:11.961Z,43.15
2023-04-26T19:17:04.164Z,43.28
2023-04-26T19:19:56.281Z,43.57
2023-04-26T19:22:38.011Z,43.44
2023-04-26T19:25:23.127Z,43.65
2023-04-26T19:28:15.953Z,43.88
2023-04-26T19:31:08.134Z,44.14
2023-04-26T19:34:00.253Z,44.22
2023-04-26T19:36:52.379Z,44.40
2023-04-26T19:39:44.343Z,44.42
2023-04-26T19:42:36.349Z,44.64
2023-04-26T19:45:29.928Z,44.70
2023-04-26T19:48:22.021Z,44.80
2023-04-26T19:51:18.605Z,45.01
2023-04-26T19:54:10.589Z,45.44
2023-04-26T19:57:04.060Z,45.59
2023-04-26T19:59:55.991Z,45.77
2023-04-26T20:02:38.183Z,45.69
2023-04-26T20:05:30.752Z,45.78
2023-04-26T20:08:22.911Z,46.23
2023-04-26T20:11:16.776Z,46.40
2023-04-26T20:14:08.789Z,46.62
2023-04-26T20:17:02.365Z,46.79
2023-04-26T20:19:54.598Z,46.78
2023-04-26T20:22:46.989Z,47.26
2023-04-26T20:25:38.945Z,47.36
2023-04-26T20:28:31.154Z,47.64
2023-04-26T20:31:23.148Z,47.78
2023-04-26T20:34:15.188Z,47.66
2023-04-26T20:36:47.280Z,47.44
2023-04-26T20:39:39.286Z,47.63
2023-04-26T20:42:31.562Z,47.77
2023-04-26T20:45:23.524Z,47.93
2023-04-26T20:48:15.458Z,48.08
2023-04-26T20:50:51.787Z,48.22
2023-04-26T20:53:43.751Z,48.29
2023-04-26T20:56:35.978Z,48.37
2023-04-26T20:59:28.219Z,48.55
2023-04-26T21:02:20.276Z,48.57
2023-04-26T21:05:01.194Z,48.69
2023-04-26T21:07:53.132Z,48.91
2023-04-26T21:10:45.063Z,49.29
2023-04-26T21:13:20.352Z,49.10
2023-04-26T21:16:12.498Z,49.36
2023-04-26T21:18:47.388Z,49.44
2023-04-26T21:21:39.408Z,49.66
2023-04-26T21:24:31.667Z,49.87
2023-04-26T21:27:23.761Z,49.97
2023-04-26T21:30:16.614Z,50.28
2023-04-26T21:33:08.756Z,50.24
2023-04-26T21:36:01.339Z,50.43
2023-04-26T21:38:43.442Z,50.50
2023-04-26T21:41:35.388Z,50.85
2023-04-26T21:44:27.382Z,50.88
2023-04-26T21:47:19.828Z,51.09
2023-04-26T21:49:56.804Z,51.16
2023-04-26T21:52:38.874Z,51.24
2023-04-26T21:55:30.872Z,51.33
2023-04-26T21:58:23.145Z,51.48
2023-04-26T22:01:07.079Z,51.49
2023-04-26T22:03:59.158Z,51.59
2023-04-26T22:06:51.468Z,51.63
2023-04-26T22:09:43.491Z,51.79
2023-04-26T22:12:35.453Z,52.10
2023-04-26T22:15:27.503Z,51.86
2023-04-26T22:18:19.707Z,52.03
2023-04-26T22:21:11.903Z,52.09
2023-04-26T22:24:03.941Z,52.33
2023-04-26T22:26:55.922Z,52.41
2023-04-26T22:29:36.531Z,52.54
2023-04-26T22:32:28.812Z,52.29
2023-04-26T22:35:21.609Z,52.48
2023-04-26T22:38:13.580Z,52.33
2023-04-26T22:41:07.204Z,52.41
2023-04-26T22:43:59.326Z,52.57
2023-04-26T22:46:51.394Z,52.88
2023-04-26T22:49:32.551Z,52.92
2023-04-26T22:52:31.647Z,52.95
2023-04-26T22:55:24.378Z,53.00
2023-04-26T22:58:17.190Z,52.87
2023-04-26T23:01:09.215Z,52.89
2023-04-26T23:04:01.395Z,52.75
2023-04-26T23:06:53.413Z,52.83
2023-04-26T23:09:34.688Z,52.83
2023-04-26T23:12:27.629Z,52.95
2023-04-26T23:15:19.767Z,53.08
2023-04-26T23:18:11.808Z,52.97
2023-04-26T23:21:03.827Z,53.00
2023-04-26T23:23:55.932Z,52.98
2023-04-26T23:26:47.861Z,53.00
2023-04-26T23:29:39.802Z,52.91
2023-04-26T23:32:31.933Z,52.91
2023-04-26T23:35:23.945Z,52.95
2023-04-26T23:38:06.115Z,52.91
2023-04-26T23:40:48.173Z,52.86
2023-04-26T23:43:40.242Z,52.91
2023-04-26T23:46:32.302Z,52.91
2023-04-26T23:49:24.435Z,53.13
2023-04-26T23:52:16.432Z,53.12
2023-04-26T23:55:10.059Z,53.33
2023-04-26T23:57:47.016Z,53.30
